createdAt,value
2022-10-12T00:02:06.792Z,69.77
2022-10-12T00:04:35.545Z,69.87
2022-10-12T00:07:18.618Z,69.98
2022-10-12T00:10:00.920Z,69.98
2022-10-12T00:12:29.638Z,69.91
2022-10-12T00:15:13.523Z,70.07
2022-10-12T00:17:56.051Z,70.26
2022-10-12T00:20:24.988Z,70.31
2022-10-12T00:22:54.002Z,70.20
2022-10-12T00:25:38.661Z,70.21
2022-10-12T00:28:21.172Z,70.23
2022-10-12T00:30:50.609Z,70.29
2022-10-12T00:33:19.618Z,70.48
2022-10-12T00:36:12.649Z,70.56
2022-10-12T00:38:56.749Z,70.69
2022-10-12T00:41:29.697Z,70.54
2022-10-12T00:44:44.456Z,70.64
2022-10-12T00:47:34.805Z,70.69
2022-10-12T00:50:11.349Z,70.59
2022-10-12T00:53:14.588Z,70.65
2022-10-12T00:56:01.624Z,70.76
2022-10-12T00:58:35.097Z,70.62
2022-10-12T01:01:05.457Z,70.87
2022-10-12T01:03:36.546Z,71.01
2022-10-12T01:06:20.178Z,70.93
2022-10-12T01:09:04.168Z,70.82
2022-10-12T01:11:46.500Z,70.83
2022-10-12T01:14:28.966Z,71.09
2022-10-12T01:17:20.267Z,71.06
2022-10-12T01:20:27.708Z,70.89
2022-10-12T01:23:16.206Z,71.11
2022-10-12T01:26:23.087Z,71.16
2022-10-12T01:28:55.166Z,71.40
2022-10-12T01:31:39.371Z,71.44
2022-10-12T01:34:48.065Z,71.51
2022-10-12T01:38:08.545Z,71.45
2022-10-12T01:41:09.821Z,71.51
2022-10-12T01:43:53.151Z,71.73
2022-10-12T01:46:21.628Z,71.67
2022-10-12T01:49:04.165Z,71.81
2022-10-12T01:52:04.440Z,71.99
2022-10-12T01:54:52.812Z,71.74
2022-10-12T01:58:12.811Z,71.79
2022-10-12T02:01:24.520Z,71.85
2022-10-12T02:04:15.284Z,71.83
2022-10-12T02:07:05.996Z,71.94
2022-10-12T02:09:37.890Z,72.01
2022-10-12T02:12:29.490Z,71.91
2022-10-12T02:15:03.419Z,72.03
2022-10-12T02:17:49.905Z,72.06
2022-10-12T02:20:23.432Z,72.21
2022-10-12T02:22:53.747Z,72.28
2022-10-12T02:25:26.907Z,72.49
2022-10-12T02:28:02.870Z,72.28
2022-10-12T02:30:42.874Z,72.43
2022-10-12T02:33:35.325Z,72.37
2022-10-12T02:36:12.004Z,72.43
2022-10-12T02:39:05.811Z,72.49
2022-10-12T02:41:41.352Z,72.56
2022-10-12T02:44:14.233Z,72.49
2022-10-12T02:46:45.806Z,72.43
2022-10-12T02:49:30.276Z,72.52
2022-10-12T02:52:12.593Z,72.55
2022-10-12T02:54:42.170Z,72.74
2022-10-12T02:57:24.665Z,72.74
2022-10-12T03:00:08.440Z,72.68
2022-10-12T03:02:37.248Z,72.78
2022-10-12T03:05:19.565Z,72.83
2022-10-12T03:07:48.336Z,72.84
2022-10-12T03:10:31.151Z,72.81
2022-10-12T03:13:13.658Z,72.99
2022-10-12T03:15:42.516Z,73.10
2022-10-12T03:18:11.392Z,72.94
2022-10-12T03:20:53.814Z,73.09
2022-10-12T03:23:36.276Z,73.08
2022-10-12T03:26:18.890Z,73.11
2022-10-12T03:29:01.625Z,73.15
2022-10-12T03:31:30.717Z,73.27
2022-10-12T03:34:13.143Z,73.32
2022-10-12T03:36:56.013Z,73.32
2022-10-12T03:39:25.117Z,73.33
2022-10-12T03:41:54.162Z,73.42
2022-10-12T03:44:23.054Z,73.41
2022-10-12T03:46:52.087Z,73.49
2022-10-12T03:49:21.821Z,73.58
2022-10-12T03:52:04.706Z,73.71
2022-10-12T03:54:33.770Z,73.73
2022-10-12T03:57:02.476Z,73.76
2022-10-12T03:59:45.436Z,73.77
2022-10-12T04:02:27.926Z,73.80
2022-10-12T04:04:56.647Z,73.76
2022-10-12T04:07:25.910Z,73.86
2022-10-12T04:10:08.563Z,73.96
2022-10-12T04:12:50.987Z,73.77
2022-10-12T04:17:49.628Z,74.11
2022-10-12T04:20:18.728Z,74.34
2022-10-12T04:23:01.212Z,74.05
2022-10-12T04:25:43.673Z,74.16
2022-10-12T04:28:26.159Z,74.11
2022-10-12T04:30:55.131Z,74.12
2022-10-12T04:33:24.176Z,74.21
2022-10-12T04:35:53.254Z,74.36
2022-10-12T04:38:35.713Z,74.35
2022-10-12T04:41:18.073Z,74.23
2022-10-12T04:43:46.964Z,74.37
2022-10-12T04:46:29.356Z,74.39
2022-10-12T04:49:12.329Z,74.64
2022-10-12T04:51:41.064Z,74.98
2022-10-12T04:54:23.783Z,74.56
2022-10-12T04:57:06.309Z,74.80
2022-10-12T04:59:35.034Z,74.76
2022-10-12T05:02:03.925Z,74.89
2022-10-12T05:07:01.936Z,74.66
2022-10-12T05:09:44.337Z,74.51
2022-10-12T05:12:13.312Z,74.69
2022-10-12T05:14:55.616Z,74.84
2022-10-12T05:17:38.795Z,74.82
2022-10-12T05:20:21.904Z,75.10
2022-10-12T05:22:51.433Z,74.98
2022-10-12T05:25:20.419Z,75.07
2022-10-12T05:28:03.031Z,75.08
2022-10-12T05:30:45.313Z,75.14
2022-10-12T05:33:14.097Z,75.18
2022-10-12T05:35:47.477Z,75.21
2022-10-12T05:38:31.269Z,75.33
2022-10-12T05:41:01.154Z,75.42
2022-10-12T05:43:43.536Z,75.65
2022-10-12T05:46:25.958Z,75.91
2022-10-12T05:48:54.744Z,75.95
2022-10-12T05:51:28.559Z,76.05
2022-10-12T05:54:11.049Z,75.95
2022-10-12T05:56:39.925Z,75.85
2022-10-12T05:59:09.073Z,75.70
2022-10-12T06:01:51.445Z,75.65
2022-10-12T06:04:20.369Z,75.76
2022-10-12T06:07:02.764Z,75.78
2022-10-12T06:09:31.684Z,75.96
2022-10-12T06:12:01.035Z,76.07
2022-10-12T06:14:29.787Z,76.07
2022-10-12T06:17:12.222Z,76.09
2022-10-12T06:19:41.142Z,76.29
2022-10-12T06:22:23.733Z,76.16
2022-10-12T06:24:52.482Z,76.25
2022-10-12T06:27:35.153Z,76.40
2022-10-12T06:30:04.900Z,76.48
2022-10-12T06:32:47.367Z,76.65
2022-10-12T06:35:29.751Z,76.72
2022-10-12T06:38:12.153Z,76.67
2022-10-12T06:40:54.512Z,76.64
2022-10-12T06:43:36.873Z,76.70
2022-10-12T06:46:05.987Z,76.89
2022-10-12T06:48:34.753Z,77.01
2022-10-12T06:51:17.301Z,77.35
2022-10-12T06:53:59.709Z,77.40
2022-10-12T06:56:28.707Z,77.45
2022-10-12T06:59:14.315Z,77.39
2022-10-12T07:01:43.288Z,77.37
2022-10-12T07:04:25.723Z,77.38
2022-10-12T07:06:54.800Z,77.38
2022-10-12T07:09:37.144Z,77.78
2022-10-12T07:12:19.483Z,77.71
2022-10-12T07:14:48.222Z,77.44
2022-10-12T07:17:17.326Z,77.57
2022-10-12T07:19:46.087Z,77.32
2022-10-12T07:22:14.686Z,77.43
2022-10-12T07:24:43.988Z,77.46
2022-10-12T07:27:26.588Z,77.49
2022-10-12T07:29:55.708Z,77.58
2022-10-12T07:32:24.301Z,78.19
2022-10-12T07:35:06.965Z,78.00
2022-10-12T07:37:50.005Z,78.61
2022-10-12T07:40:32.844Z,78.42
2022-10-12T07:43:16.867Z,78.29
2022-10-12T07:45:59.792Z,78.21
2022-10-12T07:48:29.115Z,78.45
2022-10-12T07:51:04.538Z,78.55
2022-10-12T07:53:39.951Z,78.55
2022-10-12T07:56:23.037Z,78.36
2022-10-12T07:58:54.763Z,78.31
2022-10-12T08:01:25.605Z,78.39
2022-10-12T08:04:08.300Z,78.20
2022-10-12T08:06:37.326Z,78.37
2022-10-12T08:09:06.383Z,78.43
2022-10-12T08:11:48.730Z,77.89
2022-10-12T08:14:17.531Z,78.08
2022-10-12T08:17:00.083Z,78.27
2022-10-12T08:19:32.985Z,77.77
2022-10-12T08:22:04.382Z,77.60
2022-10-12T08:24:35.392Z,77.76
2022-10-12T08:27:04.669Z,77.67
2022-10-12T08:29:33.496Z,77.71
2022-10-12T08:32:02.395Z,78.15
2022-10-12T08:34:31.514Z,78.23
2022-10-12T08:37:01.158Z,77.92
2022-10-12T08:39:43.722Z,77.71
2022-10-12T08:42:37.255Z,77.29
2022-10-12T08:45:44.590Z,76.99
2022-10-12T08:48:24.472Z,77.36
2022-10-12T08:54:06.142Z,77.45
2022-10-12T08:56:49.251Z,77.95
2022-10-12T08:59:19.253Z,77.13
2022-10-12T09:02:40.474Z,77.20
2022-10-12T09:05:32.485Z,77.37
2022-10-12T09:08:53.024Z,77.39
2022-10-12T09:11:43.751Z,78.00
2022-10-12T09:14:33.624Z,77.19
2022-10-12T09:17:12.324Z,77.46
2022-10-12T09:19:43.459Z,77.58
2022-10-12T09:22:29.269Z,77.43
2022-10-12T09:24:59.719Z,77.03
2022-10-12T09:27:32.138Z,76.41
2022-10-12T09:30:06.146Z,75.53
2022-10-12T09:32:56.213Z,75.93
2022-10-12T09:35:47.705Z,76.11
2022-10-12T09:38:30.059Z,75.67
2022-10-12T09:41:30.702Z,75.89
2022-10-12T09:44:03.821Z,75.66
2022-10-12T09:46:42.187Z,75.27
2022-10-12T09:49:11.013Z,74.95
2022-10-12T09:51:40.100Z,75.34
2022-10-12T09:54:19.663Z,74.74
2022-10-12T09:57:03.545Z,74.35
2022-10-12T09:59:46.427Z,74.63
2022-10-12T10:02:24.266Z,74.19
2022-10-12T10:04:54.673Z,72.84
2022-10-12T10:07:37.674Z,71.91
2022-10-12T10:10:16.065Z,72.18
2022-10-12T10:13:01.729Z,72.07
2022-10-12T10:15:39.591Z,72.08
2022-10-12T10:18:25.873Z,72.51
2022-10-12T10:21:11.827Z,72.52
2022-10-12T10:23:51.758Z,72.83
2022-10-12T10:26:24.149Z,72.26
2022-10-12T10:29:15.886Z,72.45
2022-10-12T10:31:46.686Z,71.89
2022-10-12T10:34:18.837Z,71.41
2022-10-12T10:37:01.287Z,71.74
2022-10-12T10:39:46.977Z,71.64
2022-10-12T10:42:32.936Z,71.49
2022-10-12T10:45:08.916Z,71.18
2022-10-12T10:47:47.209Z,71.26
2022-10-12T10:50:39.997Z,70.36
2022-10-12T10:53:26.646Z,70.40
2022-10-12T10:56:25.287Z,69.98
2022-10-12T10:58:56.754Z,70.43
2022-10-12T11:01:44.605Z,70.89
2022-10-12T11:04:35.712Z,69.48
2022-10-12T11:07:17.193Z,68.47
2022-10-12T11:09:50.688Z,68.83
2022-10-12T11:12:36.245Z,69.41
2022-10-12T11:15:16.117Z,68.96
2022-10-12T11:17:50.493Z,68.58
2022-10-12T11:21:13.565Z,67.94
2022-10-12T11:24:06.487Z,68.80
2022-10-12T11:26:45.427Z,68.53
2022-10-12T11:29:28.630Z,68.30
2022-10-12T11:32:08.398Z,68.27
2022-10-12T11:34:55.738Z,68.30
2022-10-12T11:37:36.876Z,68.60
2022-10-12T11:40:23.566Z,68.11
2022-10-12T11:42:58.218Z,67.85
2022-10-12T11:45:32.511Z,67.54
2022-10-12T11:48:36.178Z,67.21
2022-10-12T11:51:06.236Z,66.75
2022-10-12T11:53:53.640Z,66.77
2022-10-12T11:56:43.815Z,66.95
2022-10-12T11:59:31.309Z,66.98
2022-10-12T12:02:38.302Z,67.08
2022-10-12T12:05:17.131Z,65.70
2022-10-12T12:07:55.572Z,66.05
2022-10-12T12:10:38.693Z,65.91
2022-10-12T12:13:24.528Z,65.74
2022-10-12T12:15:53.278Z,65.55
2022-10-12T12:18:24.940Z,65.56
2022-10-12T12:21:10.403Z,65.20
2022-10-12T12:23:56.552Z,65.22
2022-10-12T12:26:48.195Z,65.41
2022-10-12T12:29:31.382Z,64.82
2022-10-12T12:32:13.817Z,64.62
2022-10-12T12:35:00.047Z,64.30
2022-10-12T12:37:43.170Z,64.66
2022-10-12T12:40:24.604Z,64.96
2022-10-12T12:43:29.080Z,64.79
2022-10-12T12:46:13.972Z,65.04
2022-10-12T12:48:58.069Z,65.06
2022-10-12T12:51:43.488Z,65.09
2022-10-12T12:54:21.344Z,64.85
2022-10-12T12:57:08.857Z,64.60
2022-10-12T13:00:11.802Z,64.92
2022-10-12T13:03:01.715Z,64.75
2022-10-12T13:05:49.892Z,65.16
2022-10-12T13:08:50.850Z,64.84
2022-10-12T13:11:37.989Z,65.16
2022-10-12T13:14:44.666Z,65.35
2022-10-12T13:17:33.005Z,65.15
2022-10-12T13:20:19.145Z,64.96
2022-10-12T13:22:52.589Z,64.68
2022-10-12T13:25:46.347Z,64.71
2022-10-12T13:28:33.008Z,64.60
2022-10-12T13:31:14.050Z,64.78
2022-10-12T13:34:22.041Z,64.23
2022-10-12T13:37:03.339Z,63.87
2022-10-12T13:39:40.235Z,64.10
2022-10-12T13:42:12.409Z,63.91
2022-10-12T13:44:42.526Z,63.95
2022-10-12T13:47:33.095Z,64.11
2022-10-12T13:50:02.512Z,63.88
2022-10-12T13:52:34.512Z,63.98
2022-10-12T13:55:15.849Z,63.79
2022-10-12T13:57:58.210Z,64.13
2022-10-12T14:00:47.911Z,64.03
2022-10-12T14:03:16.743Z,64.47
2022-10-12T14:05:46.333Z,64.29
2022-10-12T14:08:20.349Z,63.98
2022-10-12T14:10:49.918Z,63.83
2022-10-12T14:13:40.398Z,62.88
2022-10-12T14:16:09.743Z,63.05
2022-10-12T14:18:52.542Z,63.35
2022-10-12T14:21:31.156Z,63.59
2022-10-12T14:24:10.672Z,63.49
2022-10-12T14:26:45.258Z,63.49
2022-10-12T14:29:36.199Z,63.51
2022-10-12T14:32:08.602Z,63.38
2022-10-12T14:35:19.428Z,63.47
2022-10-12T14:38:40.062Z,63.30
2022-10-12T14:41:43.547Z,63.68
2022-10-12T14:44:16.636Z,63.48
2022-10-12T14:47:16.775Z,63.55
2022-10-12T14:49:48.035Z,63.07
2022-10-12T14:52:44.256Z,62.87
2022-10-12T14:55:30.019Z,62.92
2022-10-12T14:57:59.986Z,62.62
2022-10-12T15:00:43.009Z,62.56
2022-10-12T15:03:12.248Z,62.79
2022-10-12T15:05:41.029Z,63.11
2022-10-12T15:08:09.854Z,63.24
2022-10-12T15:10:39.223Z,63.23
2022-10-12T15:13:12.206Z,63.36
2022-10-12T15:15:45.679Z,63.42
2022-10-12T15:18:28.370Z,63.51
2022-10-12T15:21:10.809Z,63.48
2022-10-12T15:23:40.124Z,63.48
2022-10-12T15:26:17.594Z,63.28
2022-10-12T15:29:00.089Z,63.52
2022-10-12T15:31:29.160Z,63.66
2022-10-12T15:34:15.587Z,63.55
2022-10-12T15:36:44.232Z,63.68
2022-10-12T15:39:13.134Z,63.71
2022-10-12T15:41:42.173Z,63.77
2022-10-12T15:44:16.147Z,63.54
2022-10-12T15:47:00.911Z,63.79
2022-10-12T15:49:43.307Z,63.62
2022-10-12T15:52:25.594Z,63.77
2022-10-12T15:54:54.136Z,63.71
2022-10-12T15:57:37.076Z,63.75
2022-10-12T16:00:22.309Z,63.91
2022-10-12T16:02:51.082Z,63.87
2022-10-12T16:05:24.181Z,64.03
2022-10-12T16:07:53.259Z,64.06
2022-10-12T16:10:39.955Z,64.00
2022-10-12T16:13:22.469Z,64.14
2022-10-12T16:15:51.867Z,64.10
2022-10-12T16:18:20.848Z,64.33
2022-10-12T16:21:03.595Z,64.35
2022-10-12T16:23:34.631Z,64.35
2022-10-12T16:26:06.630Z,64.36
2022-10-12T16:28:36.452Z,64.51
2022-10-12T16:31:15.885Z,64.48
2022-10-12T16:33:58.445Z,64.70
2022-10-12T16:36:27.109Z,64.68
2022-10-12T16:39:09.441Z,64.89
2022-10-12T16:41:52.550Z,64.79
2022-10-12T16:44:22.871Z,64.81
2022-10-12T16:47:06.011Z,64.76
2022-10-12T16:49:34.747Z,64.96
2022-10-12T16:52:04.406Z,64.94
2022-10-12T16:54:47.616Z,65.38
2022-10-12T16:57:29.901Z,65.51
2022-10-12T16:59:59.286Z,65.29
2022-10-12T17:02:28.423Z,65.18
2022-10-12T17:04:57.033Z,64.74
2022-10-12T17:07:27.112Z,65.38
2022-10-12T17:10:09.884Z,65.30
2022-10-12T17:12:38.542Z,65.43
2022-10-12T17:15:08.525Z,65.94
2022-10-12T17:17:37.210Z,65.77
2022-10-12T17:20:07.156Z,66.09
2022-10-12T17:22:35.854Z,66.04
2022-10-12T17:25:05.198Z,66.23
2022-10-12T17:27:34.618Z,66.08
2022-10-12T17:30:03.815Z,66.55
2022-10-12T17:32:46.783Z,66.19
2022-10-12T17:35:15.623Z,66.50
2022-10-12T17:37:44.311Z,66.59
2022-10-12T17:40:13.527Z,66.53
2022-10-12T17:42:56.241Z,66.70
2022-10-12T17:45:25.006Z,66.59
2022-10-12T17:48:08.231Z,66.69
2022-10-12T17:50:50.736Z,66.88
2022-10-12T17:53:19.656Z,66.83
2022-10-12T17:56:03.549Z,67.02
2022-10-12T17:58:45.831Z,67.11
2022-10-12T18:01:16.614Z,67.02
2022-10-12T18:04:04.971Z,66.84
2022-10-12T18:06:34.778Z,66.91
2022-10-12T18:09:05.670Z,67.30
2022-10-12T18:11:35.014Z,67.38
2022-10-12T18:14:17.427Z,67.10
2022-10-12T18:16:59.793Z,67.19
2022-10-12T18:19:28.863Z,67.60
2022-10-12T18:22:11.560Z,67.57
2022-10-12T18:24:41.226Z,67.28
2022-10-12T18:27:23.581Z,67.44
2022-10-12T18:29:52.496Z,67.47
2022-10-12T18:32:21.407Z,67.20
2022-10-12T18:35:03.923Z,67.25
2022-10-12T18:37:33.105Z,67.27
2022-10-12T18:40:02.097Z,67.26
2022-10-12T18:42:44.880Z,67.33
2022-10-12T18:45:14.378Z,67.61
2022-10-12T18:47:43.161Z,67.91
2022-10-12T18:50:12.570Z,67.80
2022-10-12T18:52:43.136Z,67.91
2022-10-12T18:55:12.074Z,67.95
2022-10-12T18:57:54.687Z,68.00
2022-10-12T19:00:23.792Z,68.02
2022-10-12T19:02:52.613Z,68.00
2022-10-12T19:05:21.290Z,67.92
2022-10-12T19:08:03.668Z,67.95
2022-10-12T19:10:33.820Z,67.85
2022-10-12T19:13:02.917Z,67.93
2022-10-12T19:15:32.449Z,68.05
2022-10-12T19:18:02.801Z,68.06
2022-10-12T19:20:33.888Z,68.29
2022-10-12T19:23:04.368Z,68.61
2022-10-12T19:25:39.303Z,68.51
2022-10-12T19:28:08.920Z,68.33
2022-10-12T19:30:40.569Z,68.46
2022-10-12T19:33:24.302Z,68.71
2022-10-12T19:35:55.266Z,68.64
2022-10-12T19:38:24.995Z,68.61
2022-10-12T19:41:08.356Z,68.59
2022-10-12T19:43:38.154Z,68.62
2022-10-12T19:46:11.759Z,68.87
2022-10-12T19:48:45.449Z,68.55
2022-10-12T19:51:14.539Z,69.01
2022-10-12T19:53:45.740Z,68.93
2022-10-12T19:56:30.407Z,68.79
2022-10-12T19:59:00.632Z,68.87
2022-10-12T20:01:36.220Z,68.91
2022-10-12T20:04:09.896Z,69.16
2022-10-12T20:06:39.513Z,69.22
2022-10-12T20:09:09.536Z,69.45
2022-10-12T20:11:38.908Z,68.92
2022-10-12T20:14:21.119Z,69.30
2022-10-12T20:16:51.006Z,69.34
2022-10-12T20:19:20.163Z,69.55
2022-10-12T20:21:49.350Z,69.50
2022-10-12T20:24:18.110Z,69.54
2022-10-12T20:26:47.343Z,69.64
2022-10-12T20:29:16.267Z,69.39
2022-10-12T20:31:58.648Z,69.79
2022-10-12T20:34:27.610Z,69.71
2022-10-12T20:37:11.263Z,69.93
2022-10-12T20:39:53.583Z,69.73
2022-10-12T20:42:35.893Z,69.69
2022-10-12T20:45:05.488Z,69.83
2022-10-12T20:47:34.367Z,70.12
2022-10-12T20:50:03.349Z,70.17
2022-10-12T20:52:32.020Z,70.09
2022-10-12T20:55:14.962Z,70.27
2022-10-12T20:57:57.361Z,70.01
2022-10-12T21:00:39.832Z,70.27
2022-10-12T21:03:22.219Z,70.39
2022-10-12T21:05:51.053Z,70.31
2022-10-12T21:08:20.072Z,70.60
2022-10-12T21:11:03.664Z,70.92
2022-10-12T21:13:34.587Z,70.37
2022-10-12T21:16:03.475Z,70.78
2022-10-12T21:18:37.650Z,70.84
2022-10-12T21:21:13.999Z,70.92
2022-10-12T21:23:45.233Z,70.93
2022-10-12T21:26:18.992Z,70.78
2022-10-12T21:28:48.121Z,70.94
2022-10-12T21:31:32.942Z,71.00
2022-10-12T21:34:15.508Z,71.24
2022-10-12T21:36:44.721Z,71.11
2022-10-12T21:39:16.269Z,71.10
2022-10-12T21:41:45.128Z,71.42
2022-10-12T21:44:27.462Z,71.38
2022-10-12T21:46:56.729Z,71.44
2022-10-12T21:49:25.354Z,71.63
2022-10-12T21:51:54.277Z,72.00
2022-10-12T21:54:23.148Z,71.63
2022-10-12T21:56:51.652Z,71.41
2022-10-12T21:59:20.208Z,72.18
2022-10-12T22:01:49.279Z,71.76
2022-10-12T22:04:31.634Z,71.48
2022-10-12T22:07:01.327Z,71.61
2022-10-12T22:09:44.078Z,71.70
2022-10-12T22:12:26.552Z,71.67
2022-10-12T22:14:55.371Z,71.75
2022-10-12T22:17:39.193Z,71.86
2022-10-12T22:20:21.751Z,71.78
2022-10-12T22:23:07.852Z,72.17
2022-10-12T22:25:50.312Z,72.27
2022-10-12T22:28:19.465Z,72.65
2022-10-12T22:30:48.432Z,72.18
2022-10-12T22:33:17.876Z,72.27
2022-10-12T22:36:01.739Z,72.18
2022-10-12T22:38:44.545Z,72.38
2022-10-12T22:41:16.480Z,72.31
2022-10-12T22:43:50.713Z,72.35
2022-10-12T22:46:20.893Z,72.61
2022-10-12T22:48:49.911Z,72.57
2022-10-12T22:51:35.146Z,72.69
2022-10-12T22:54:17.679Z,72.94
2022-10-12T22:56:48.190Z,73.22
2022-10-12T22:59:30.592Z,73.25
2022-10-12T23:01:59.686Z,73.08
2022-10-12T23:04:29.246Z,72.98
2022-10-12T23:07:12.273Z,73.16
2022-10-12T23:09:54.702Z,73.08
2022-10-12T23:12:37.786Z,73.28
2022-10-12T23:15:20.273Z,73.14
2022-10-12T23:18:04.986Z,73.31
2022-10-12T23:20:47.790Z,73.38
2022-10-12T23:23:16.829Z,73.29
2022-10-12T23:25:46.349Z,73.26
2022-10-12T23:28:17.738Z,73.40
2022-10-12T23:30:46.713Z,73.21
2022-10-12T23:33:29.570Z,73.31
2022-10-12T23:36:01.558Z,73.49
2022-10-12T23:38:32.266Z,73.50
2022-10-12T23:41:02.013Z,73.42
2022-10-12T23:43:44.503Z,73.22
2022-10-12T23:46:14.322Z,73.18
2022-10-12T23:48:57.487Z,73.35
2022-10-12T23:51:39.969Z,73.50
2022-10-12T23:54:09.655Z,74.15
2022-10-12T23:56:52.654Z,73.82
2022-10-12T23:59:21.976Z,73.76
